sensor_id;sensor_type;location;lat;lon;timestamp;P1;durP1;ratioP1;P2;durP2;ratioP2
44189;SDS011;29856;52.144;5.430;2023-06-26T00:01:00;9.52;;;8.30;;
44189;SDS011;29856;52.144;5.430;2023-06-26T00:03:25;11.35;;;8.82;;
44189;SDS011;29856;52.144;5.430;2023-06-26T00:05:51;11.85;;;8.85;;
44189;SDS011;29856;52.144;5.430;2023-06-26T00:08:16;11.43;;;9.20;;
44189;SDS011;29856;52.144;5.430;2023-06-26T00:10:42;9.35;;;8.40;;
44189;SDS011;29856;52.144;5.430;2023-06-26T00:13:07;9.75;;;8.65;;
44189;SDS011;29856;52.144;5.430;2023-06-26T00:15:33;10.13;;;8.55;;
44189;SDS011;29856;52.144;5.430;2023-06-26T00:17:58;8.98;;;8.07;;
44189;SDS011;29856;52.144;5.430;2023-06-26T00:20:24;9.60;;;8.57;;
44189;SDS011;29856;52.144;5.430;2023-06-26T00:22:49;10.20;;;8.45;;
44189;SDS011;29856;52.144;5.430;2023-06-26T00:25:15;9.00;;;7.32;;
44189;SDS011;29856;52.144;5.430;2023-06-26T00:27:41;9.07;;;7.78;;
44189;SDS011;29856;52.144;5.430;2023-06-26T00:30:06;13.68;;;8.30;;
44189;SDS011;29856;52.144;5.430;2023-06-26T00:32:32;9.18;;;8.27;;
44189;SDS011;29856;52.144;5.430;2023-06-26T00:34:58;11.15;;;7.90;;
44189;SDS011;29856;52.144;5.430;2023-06-26T00:37:23;9.90;;;7.30;;
44189;SDS011;29856;52.144;5.430;2023-06-26T00:39:49;7.25;;;6.55;;
44189;SDS011;29856;52.144;5.430;2023-06-26T00:42:14;7.82;;;7.10;;
44189;SDS011;29856;52.144;5.430;2023-06-26T00:44:40;8.18;;;7.10;;
44189;SDS011;29856;52.144;5.430;2023-06-26T00:47:05;7.88;;;7.07;;
44189;SDS011;29856;52.144;5.430;2023-06-26T00:49:31;7.70;;;6.57;;
44189;SDS011;29856;52.144;5.430;2023-06-26T00:51:56;8.70;;;6.93;;
44189;SDS011;29856;52.144;5.430;2023-06-26T00:54:22;8.45;;;6.75;;
44189;SDS011;29856;52.144;5.430;2023-06-26T00:56:48;7.20;;;6.53;;
44189;SDS011;29856;52.144;5.430;2023-06-26T00:59:14;7.55;;;6.75;;
44189;SDS011;29856;52.144;5.430;2023-06-26T01:01:39;7.20;;;6.50;;
44189;SDS011;29856;52.144;5.430;2023-06-26T01:04:05;8.20;;;6.90;;
44189;SDS011;29856;52.144;5.430;2023-06-26T01:06:31;6.85;;;6.25;;
44189;SDS011;29856;52.144;5.430;2023-06-26T01:08:59;7.55;;;6.20;;
44189;SDS011;29856;52.144;5.430;2023-06-26T01:11:24;8.63;;;6.38;;
44189;SDS011;29856;52.144;5.430;2023-06-26T01:13:50;8.20;;;6.57;;
44189;SDS011;29856;52.144;5.430;2023-06-26T01:16:16;6.97;;;6.35;;
44189;SDS011;29856;52.144;5.430;2023-06-26T01:18:43;7.30;;;6.53;;
44189;SDS011;29856;52.144;5.430;2023-06-26T01:21:09;7.63;;;6.43;;
44189;SDS011;29856;52.144;5.430;2023-06-26T01:23:38;7.93;;;6.40;;
44189;SDS011;29856;52.144;5.430;2023-06-26T01:26:23;8.38;;;6.40;;
44189;SDS011;29856;52.144;5.430;2023-06-26T01:28:56;9.68;;;6.55;;
44189;SDS011;29856;52.144;5.430;2023-06-26T01:31:25;10.23;;;6.78;;
44189;SDS011;29856;52.144;5.430;2023-06-26T01:33:54;7.15;;;6.45;;
44189;SDS011;29856;52.144;5.430;2023-06-26T01:36:22;7.32;;;6.60;;
44189;SDS011;29856;52.144;5.430;2023-06-26T01:38:47;8.38;;;7.10;;
44189;SDS011;29856;52.144;5.430;2023-06-26T01:41:13;7.47;;;6.75;;
44189;SDS011;29856;52.144;5.430;2023-06-26T01:43:41;6.90;;;6.30;;
44189;SDS011;29856;52.144;5.430;2023-06-26T01:46:15;7.07;;;6.38;;
44189;SDS011;29856;52.144;5.430;2023-06-26T01:52:19;9.73;;;5.75;;
44189;SDS011;29856;52.144;5.430;2023-06-26T01:57:45;8.65;;;5.63;;
44189;SDS011;29856;52.144;5.430;2023-06-26T02:00:13;5.90;;;4.82;;
44189;SDS011;29856;52.144;5.430;2023-06-26T02:02:41;9.13;;;4.70;;
44189;SDS011;29856;52.144;5.430;2023-06-26T02:05:07;6.20;;;4.70;;
44189;SDS011;29856;52.144;5.430;2023-06-26T02:07:32;6.82;;;5.32;;
44189;SDS011;29856;52.144;5.430;2023-06-26T02:09:58;7.93;;;4.95;;
44189;SDS011;29856;52.144;5.430;2023-06-26T02:12:23;7.40;;;4.80;;
44189;SDS011;29856;52.144;5.430;2023-06-26T02:14:49;7.03;;;4.78;;
44189;SDS011;29856;52.144;5.430;2023-06-26T02:17:14;11.10;;;4.68;;
44189;SDS011;29856;52.144;5.430;2023-06-26T02:19:39;10.05;;;5.50;;
44189;SDS011;29856;52.144;5.430;2023-06-26T02:22:05;6.65;;;4.97;;
44189;SDS011;29856;52.144;5.430;2023-06-26T02:24:30;7.43;;;4.95;;
44189;SDS011;29856;52.144;5.430;2023-06-26T02:26:56;5.93;;;4.97;;
44189;SDS011;29856;52.144;5.430;2023-06-26T02:29:21;8.00;;;5.25;;
44189;SDS011;29856;52.144;5.430;2023-06-26T02:31:47;7.05;;;5.28;;
44189;SDS011;29856;52.144;5.430;2023-06-26T02:34:12;13.07;;;5.53;;
44189;SDS011;29856;52.144;5.430;2023-06-26T02:36:38;8.05;;;4.95;;
44189;SDS011;29856;52.144;5.430;2023-06-26T02:39:03;6.93;;;4.53;;
44189;SDS011;29856;52.144;5.430;2023-06-26T02:41:29;8.60;;;4.70;;
44189;SDS011;29856;52.144;5.430;2023-06-26T02:43:54;9.18;;;4.95;;
44189;SDS011;29856;52.144;5.430;2023-06-26T02:46:20;7.32;;;4.75;;
44189;SDS011;29856;52.144;5.430;2023-06-26T02:48:45;10.15;;;5.43;;
44189;SDS011;29856;52.144;5.430;2023-06-26T02:51:11;13.30;;;5.43;;
44189;SDS011;29856;52.144;5.430;2023-06-26T02:53:36;10.60;;;5.38;;
44189;SDS011;29856;52.144;5.430;2023-06-26T02:56:02;12.65;;;4.85;;
44189;SDS011;29856;52.144;5.430;2023-06-26T02:58:27;16.35;;;5.22;;
44189;SDS011;29856;52.144;5.430;2023-06-26T03:00:53;10.50;;;4.90;;
44189;SDS011;29856;52.144;5.430;2023-06-26T03:03:18;12.02;;;5.10;;
44189;SDS011;29856;52.144;5.430;2023-06-26T03:05:44;10.80;;;4.63;;
44189;SDS011;29856;52.144;5.430;2023-06-26T03:08:09;10.40;;;4.70;;
44189;SDS011;29856;52.144;5.430;2023-06-26T03:10:35;15.23;;;5.00;;
44189;SDS011;29856;52.144;5.430;2023-06-26T03:13:00;11.85;;;4.93;;
44189;SDS011;29856;52.144;5.430;2023-06-26T03:15:26;14.63;;;5.25;;
44189;SDS011;29856;52.144;5.430;2023-06-26T03:17:51;13.38;;;5.05;;
44189;SDS011;29856;52.144;5.430;2023-06-26T03:20:17;14.43;;;5.03;;
44189;SDS011;29856;52.144;5.430;2023-06-26T03:22:42;15.98;;;5.47;;
44189;SDS011;29856;52.144;5.430;2023-06-26T03:25:08;10.57;;;4.78;;
44189;SDS011;29856;52.144;5.430;2023-06-26T03:27:33;11.82;;;4.40;;
44189;SDS011;29856;52.144;5.430;2023-06-26T03:29:59;13.50;;;5.10;;
44189;SDS011;29856;52.144;5.430;2023-06-26T03:32:24;17.65;;;5.22;;
44189;SDS011;29856;52.144;5.430;2023-06-26T03:34:50;12.00;;;5.53;;
44189;SDS011;29856;52.144;5.430;2023-06-26T03:37:15;14.20;;;5.47;;
44189;SDS011;29856;52.144;5.430;2023-06-26T03:39:41;13.63;;;5.13;;
44189;SDS011;29856;52.144;5.430;2023-06-26T03:42:06;12.75;;;4.60;;
44189;SDS011;29856;52.144;5.430;2023-06-26T03:44:32;13.13;;;4.97;;
44189;SDS011;29856;52.144;5.430;2023-06-26T03:46:57;16.85;;;6.05;;
44189;SDS011;29856;52.144;5.430;2023-06-26T03:49:23;15.57;;;5.68;;
44189;SDS011;29856;52.144;5.430;2023-06-26T03:51:48;13.45;;;5.15;;
44189;SDS011;29856;52.144;5.430;2023-06-26T03:54:14;14.05;;;5.60;;
44189;SDS011;29856;52.144;5.430;2023-06-26T03:56:40;16.73;;;5.28;;
44189;SDS011;29856;52.144;5.430;2023-06-26T03:59:05;14.80;;;5.38;;
44189;SDS011;29856;52.144;5.430;2023-06-26T04:01:31;14.05;;;5.00;;
44189;SDS011;29856;52.144;5.430;2023-06-26T04:03:56;15.02;;;5.40;;
44189;SDS011;29856;52.144;5.430;2023-06-26T04:06:22;13.20;;;5.85;;
44189;SDS011;29856;52.144;5.430;2023-06-26T04:08:47;22.05;;;6.25;;
44189;SDS011;29856;52.144;5.430;2023-06-26T04:11:13;15.80;;;5.80;;
44189;SDS011;29856;52.144;5.430;2023-06-26T04:13:38;21.02;;;6.13;;
44189;SDS011;29856;52.144;5.430;2023-06-26T04:16:04;14.55;;;4.90;;
44189;SDS011;29856;52.144;5.430;2023-06-26T04:18:29;15.88;;;5.47;;
44189;SDS011;29856;52.144;5.430;2023-06-26T04:21:05;18.92;;;6.10;;
44189;SDS011;29856;52.144;5.430;2023-06-26T04:23:35;13.80;;;5.32;;
44189;SDS011;29856;52.144;5.430;2023-06-26T04:26:00;13.30;;;5.47;;
44189;SDS011;29856;52.144;5.430;2023-06-26T04:28:29;15.77;;;5.55;;
44189;SDS011;29856;52.144;5.430;2023-06-26T04:30:54;16.08;;;5.30;;
44189;SDS011;29856;52.144;5.430;2023-06-26T04:33:20;18.08;;;5.90;;
44189;SDS011;29856;52.144;5.430;2023-06-26T04:35:46;15.57;;;5.68;;
44189;SDS011;29856;52.144;5.430;2023-06-26T04:38:11;14.52;;;5.95;;
44189;SDS011;29856;52.144;5.430;2023-06-26T04:40:36;16.42;;;5.47;;
44189;SDS011;29856;52.144;5.430;2023-06-26T04:43:02;14.52;;;5.75;;
44189;SDS011;29856;52.144;5.430;2023-06-26T04:45:28;12.60;;;5.10;;
44189;SDS011;29856;52.144;5.430;2023-06-26T04:47:53;14.93;;;5.03;;
44189;SDS011;29856;52.144;5.430;2023-06-26T04:50:19;21.95;;;6.30;;
44189;SDS011;29856;52.144;5.430;2023-06-26T04:52:44;16.98;;;6.32;;
44189;SDS011;29856;52.144;5.430;2023-06-26T04:55:10;18.10;;;5.70;;
44189;SDS011;29856;52.144;5.430;2023-06-26T04:57:35;13.68;;;5.38;;
44189;SDS011;29856;52.144;5.430;2023-06-26T05:00:01;14.93;;;5.05;;
44189;SDS011;29856;52.144;5.430;2023-06-26T05:02:27;18.50;;;5.32;;
44189;SDS011;29856;52.144;5.430;2023-06-26T05:04:56;15.65;;;5.60;;
44189;SDS011;29856;52.144;5.430;2023-06-26T05:07:21;16.38;;;5.13;;
44189;SDS011;29856;52.144;5.430;2023-06-26T05:09:47;13.30;;;4.28;;
44189;SDS011;29856;52.144;5.430;2023-06-26T05:12:12;11.60;;;4.80;;
44189;SDS011;29856;52.144;5.430;2023-06-26T05:14:38;16.13;;;5.53;;
44189;SDS011;29856;52.144;5.430;2023-06-26T05:17:04;12.18;;;4.95;;
44189;SDS011;29856;52.144;5.430;2023-06-26T05:19:29;13.27;;;4.75;;
44189;SDS011;29856;52.144;5.430;2023-06-26T05:21:55;10.57;;;4.07;;
44189;SDS011;29856;52.144;5.430;2023-06-26T05:24:21;6.97;;;4.05;;
44189;SDS011;29856;52.144;5.430;2023-06-26T05:26:47;9.20;;;4.38;;
44189;SDS011;29856;52.144;5.430;2023-06-26T05:29:13;10.45;;;4.80;;
44189;SDS011;29856;52.144;5.430;2023-06-26T05:31:40;10.73;;;3.92;;
44189;SDS011;29856;52.144;5.430;2023-06-26T05:34:06;8.95;;;4.15;;
44189;SDS011;29856;52.144;5.430;2023-06-26T05:36:34;13.52;;;5.70;;
44189;SDS011;29856;52.144;5.430;2023-06-26T05:39:00;12.10;;;4.68;;
44189;SDS011;29856;52.144;5.430;2023-06-26T05:41:27;8.45;;;3.67;;
44189;SDS011;29856;52.144;5.430;2023-06-26T05:43:53;9.13;;;4.63;;
44189;SDS011;29856;52.144;5.430;2023-06-26T05:46:18;9.98;;;4.18;;
44189;SDS011;29856;52.144;5.430;2023-06-26T05:48:44;8.15;;;4.13;;
44189;SDS011;29856;52.144;5.430;2023-06-26T05:51:09;7.43;;;4.00;;
44189;SDS011;29856;52.144;5.430;2023-06-26T05:53:35;7.72;;;3.30;;
44189;SDS011;29856;52.144;5.430;2023-06-26T05:56:01;8.88;;;3.17;;
44189;SDS011;29856;52.144;5.430;2023-06-26T05:58:26;6.53;;;3.45;;
44189;SDS011;29856;52.144;5.430;2023-06-26T06:00:52;6.38;;;2.75;;
44189;SDS011;29856;52.144;5.430;2023-06-26T06:03:18;4.68;;;2.63;;
44189;SDS011;29856;52.144;5.430;2023-06-26T06:05:43;10.63;;;3.10;;
44189;SDS011;29856;52.144;5.430;2023-06-26T06:08:09;5.20;;;2.70;;
44189;SDS011;29856;52.144;5.430;2023-06-26T06:10:34;7.80;;;3.05;;
44189;SDS011;29856;52.144;5.430;2023-06-26T06:13:00;8.30;;;2.58;;
44189;SDS011;29856;52.144;5.430;2023-06-26T06:15:25;6.72;;;2.28;;
44189;SDS011;29856;52.144;5.430;2023-06-26T06:17:51;3.47;;;2.20;;
44189;SDS011;29856;52.144;5.430;2023-06-26T06:20:17;5.18;;;2.05;;
44189;SDS011;29856;52.144;5.430;2023-06-26T06:22:42;8.00;;;2.90;;
44189;SDS011;29856;52.144;5.430;2023-06-26T06:25:08;5.75;;;2.53;;
44189;SDS011;29856;52.144;5.430;2023-06-26T06:27:34;5.75;;;3.00;;
44189;SDS011;29856;52.144;5.430;2023-06-26T06:30:00;7.18;;;3.00;;
44189;SDS011;29856;52.144;5.430;2023-06-26T06:32:26;6.75;;;2.70;;
44189;SDS011;29856;52.144;5.430;2023-06-26T06:34:51;3.75;;;2.55;;
44189;SDS011;29856;52.144;5.430;2023-06-26T06:37:17;8.50;;;2.65;;
44189;SDS011;29856;52.144;5.430;2023-06-26T06:39:42;6.05;;;2.80;;
44189;SDS011;29856;52.144;5.430;2023-06-26T06:42:08;7.95;;;2.67;;
44189;SDS011;29856;52.144;5.430;2023-06-26T06:44:33;7.20;;;2.60;;
44189;SDS011;29856;52.144;5.430;2023-06-26T06:46:59;10.88;;;2.85;;
44189;SDS011;29856;52.144;5.430;2023-06-26T06:49:24;8.25;;;2.70;;
44189;SDS011;29856;52.144;5.430;2023-06-26T06:51:50;5.43;;;2.83;;
44189;SDS011;29856;52.144;5.430;2023-06-26T06:54:16;10.15;;;3.00;;
44189;SDS011;29856;52.144;5.430;2023-06-26T06:56:41;5.75;;;2.38;;
44189;SDS011;29856;52.144;5.430;2023-06-26T06:59:07;5.72;;;2.40;;
44189;SDS011;29856;52.144;5.430;2023-06-26T07:01:32;3.85;;;2.38;;
44189;SDS011;29856;52.144;5.430;2023-06-26T07:03:58;5.25;;;2.33;;
44189;SDS011;29856;52.144;5.430;2023-06-26T07:06:23;6.50;;;2.50;;
44189;SDS011;29856;52.144;5.430;2023-06-26T07:08:49;4.45;;;2.50;;
44189;SDS011;29856;52.144;5.430;2023-06-26T07:11:14;7.55;;;3.13;;
44189;SDS011;29856;52.144;5.430;2023-06-26T07:13:40;4.90;;;2.92;;
44189;SDS011;29856;52.144;5.430;2023-06-26T07:16:05;7.82;;;2.80;;
44189;SDS011;29856;52.144;5.430;2023-06-26T07:18:31;8.63;;;2.90;;
44189;SDS011;29856;52.144;5.430;2023-06-26T07:20:56;7.13;;;2.70;;
44189;SDS011;29856;52.144;5.430;2023-06-26T07:23:22;4.85;;;2.80;;
44189;SDS011;29856;52.144;5.430;2023-06-26T07:25:47;7.13;;;2.95;;
44189;SDS011;29856;52.144;5.430;2023-06-26T07:28:13;6.68;;;2.67;;
44189;SDS011;29856;52.144;5.430;2023-06-26T07:30:38;6.32;;;2.88;;
44189;SDS011;29856;52.144;5.430;2023-06-26T07:33:04;9.13;;;3.22;;
44189;SDS011;29856;52.144;5.430;2023-06-26T07:35:30;7.20;;;3.20;;
44189;SDS011;29856;52.144;5.430;2023-06-26T07:37:55;7.95;;;3.47;;
44189;SDS011;29856;52.144;5.430;2023-06-26T07:40:21;6.00;;;2.80;;
44189;SDS011;29856;52.144;5.430;2023-06-26T07:42:46;5.13;;;2.35;;
44189;SDS011;29856;52.144;5.430;2023-06-26T07:45:12;9.10;;;3.50;;
44189;SDS011;29856;52.144;5.430;2023-06-26T07:47:38;10.25;;;3.08;;
44189;SDS011;29856;52.144;5.430;2023-06-26T07:50:03;4.90;;;2.92;;
44189;SDS011;29856;52.144;5.430;2023-06-26T07:52:29;7.40;;;2.55;;
44189;SDS011;29856;52.144;5.430;2023-06-26T07:54:55;8.15;;;2.97;;
44189;SDS011;29856;52.144;5.430;2023-06-26T07:57:21;5.45;;;2.90;;
44189;SDS011;29856;52.144;5.430;2023-06-26T07:59:47;8.63;;;2.92;;
44189;SDS011;29856;52.144;5.430;2023-06-26T08:02:12;5.95;;;3.25;;
44189;SDS011;29856;52.144;5.430;2023-06-26T08:04:38;8.15;;;3.25;;
44189;SDS011;29856;52.144;5.430;2023-06-26T08:07:03;7.55;;;2.97;;
44189;SDS011;29856;52.144;5.430;2023-06-26T08:09:29;5.25;;;3.13;;
44189;SDS011;29856;52.144;5.430;2023-06-26T08:11:55;9.77;;;3.00;;
44189;SDS011;29856;52.144;5.430;2023-06-26T08:14:21;9.48;;;3.70;;
44189;SDS011;29856;52.144;5.430;2023-06-26T08:16:47;9.05;;;2.90;;
44189;SDS011;29856;52.144;5.430;2023-06-26T08:19:13;8.38;;;3.58;;
44189;SDS011;29856;52.144;5.430;2023-06-26T08:21:40;9.20;;;3.20;;
44189;SDS011;29856;52.144;5.430;2023-06-26T08:24:06;8.63;;;2.90;;
44189;SDS011;29856;52.144;5.430;2023-06-26T08:26:32;6.90;;;2.97;;
44189;SDS011;29856;52.144;5.430;2023-06-26T08:28:58;6.25;;;2.25;;
44189;SDS011;29856;52.144;5.430;2023-06-26T08:31:24;6.13;;;2.50;;
44189;SDS011;29856;52.144;5.430;2023-06-26T08:33:49;8.30;;;2.67;;
44189;SDS011;29856;52.144;5.430;2023-06-26T08:36:15;6.80;;;2.60;;
44189;SDS011;29856;52.144;5.430;2023-06-26T08:38:40;9.20;;;2.10;;
44189;SDS011;29856;52.144;5.430;2023-06-26T08:41:06;9.10;;;2.55;;
44189;SDS011;29856;52.144;5.430;2023-06-26T08:43:32;6.05;;;2.15;;
44189;SDS011;29856;52.144;5.430;2023-06-26T08:45:58;7.25;;;2.65;;
44189;SDS011;29856;52.144;5.430;2023-06-26T08:48:24;5.85;;;1.80;;
44189;SDS011;29856;52.144;5.430;2023-06-26T08:50:52;5.95;;;2.50;;
44189;SDS011;29856;52.144;5.430;2023-06-26T08:55:53;4.10;;;1.45;;
44189;SDS011;29856;52.144;5.430;2023-06-26T08:58:22;4.03;;;1.52;;
44189;SDS011;29856;52.144;5.430;2023-06-26T09:00:47;6.68;;;1.92;;
44189;SDS011;29856;52.144;5.430;2023-06-26T09:03:13;5.13;;;1.95;;
44189;SDS011;29856;52.144;5.430;2023-06-26T09:05:39;8.80;;;1.80;;
44189;SDS011;29856;52.144;5.430;2023-06-26T09:08:04;4.47;;;1.70;;
44189;SDS011;29856;52.144;5.430;2023-06-26T09:10:30;7.43;;;1.98;;
44189;SDS011;29856;52.144;5.430;2023-06-26T09:12:56;7.57;;;1.75;;
44189;SDS011;29856;52.144;5.430;2023-06-26T09:15:21;6.75;;;1.70;;
44189;SDS011;29856;52.144;5.430;2023-06-26T09:17:47;5.78;;;1.60;;
44189;SDS011;29856;52.144;5.430;2023-06-26T09:20:13;7.85;;;2.03;;
44189;SDS011;29856;52.144;5.430;2023-06-26T09:22:41;4.00;;;1.80;;
44189;SDS011;29856;52.144;5.430;2023-06-26T09:25:08;4.78;;;1.80;;
44189;SDS011;29856;52.144;5.430;2023-06-26T09:27:35;8.23;;;1.98;;
44189;SDS011;29856;52.144;5.430;2023-06-26T09:30:03;8.13;;;1.65;;
44189;SDS011;29856;52.144;5.430;2023-06-26T09:32:30;5.85;;;1.60;;
44189;SDS011;29856;52.144;5.430;2023-06-26T09:34:55;3.45;;;1.95;;
44189;SDS011;29856;52.144;5.430;2023-06-26T09:37:21;3.22;;;1.40;;
44189;SDS011;29856;52.144;5.430;2023-06-26T09:39:47;5.60;;;1.60;;
44189;SDS011;29856;52.144;5.430;2023-06-26T09:42:15;6.25;;;2.38;;
44189;SDS011;29856;52.144;5.430;2023-06-26T09:44:44;5.30;;;1.63;;
44189;SDS011;29856;52.144;5.430;2023-06-26T09:47:10;5.22;;;1.85;;
44189;SDS011;29856;52.144;5.430;2023-06-26T09:49:36;5.35;;;1.92;;
44189;SDS011;29856;52.144;5.430;2023-06-26T09:52:05;6.20;;;1.90;;
44189;SDS011;29856;52.144;5.430;2023-06-26T09:54:31;4.65;;;2.30;;
44189;SDS011;29856;52.144;5.430;2023-06-26T09:57:07;7.10;;;1.85;;
44189;SDS011;29856;52.144;5.430;2023-06-26T09:59:36;5.85;;;1.80;;
44189;SDS011;29856;52.144;5.430;2023-06-26T10:02:02;7.50;;;1.48;;
44189;SDS011;29856;52.144;5.430;2023-06-26T10:04:28;5.07;;;1.70;;
44189;SDS011;29856;52.144;5.430;2023-06-26T10:06:57;6.32;;;1.50;;
44189;SDS011;29856;52.144;5.430;2023-06-26T10:09:24;6.13;;;1.80;;
44189;SDS011;29856;52.144;5.430;2023-06-26T10:11:52;14.38;;;2.35;;
44189;SDS011;29856;52.144;5.430;2023-06-26T10:14:19;5.75;;;1.63;;
44189;SDS011;29856;52.144;5.430;2023-06-26T10:16:46;11.93;;;1.90;;
44189;SDS011;29856;52.144;5.430;2023-06-26T10:19:14;6.50;;;1.60;;
44189;SDS011;29856;52.144;5.430;2023-06-26T10:21:43;6.75;;;1.48;;
44189;SDS011;29856;52.144;5.430;2023-06-26T10:24:09;4.78;;;1.40;;
44189;SDS011;29856;52.144;5.430;2023-06-26T10:26:38;1.98;;;1.40;;
44189;SDS011;29856;52.144;5.430;2023-06-26T10:29:09;5.07;;;1.65;;
44189;SDS011;29856;52.144;5.430;2023-06-26T10:31:36;5.80;;;1.75;;
44189;SDS011;29856;52.144;5.430;2023-06-26T10:34:02;6.22;;;1.77;;
44189;SDS011;29856;52.144;5.430;2023-06-26T10:36:29;6.07;;;1.83;;
44189;SDS011;29856;52.144;5.430;2023-06-26T10:39:06;4.65;;;1.60;;
44189;SDS011;29856;52.144;5.430;2023-06-26T10:41:39;4.07;;;1.30;;
44189;SDS011;29856;52.144;5.430;2023-06-26T10:44:06;2.92;;;1.40;;
44189;SDS011;29856;52.144;5.430;2023-06-26T10:46:54;4.18;;;1.20;;
44189;SDS011;29856;52.144;5.430;2023-06-26T10:49:20;4.28;;;1.42;;
44189;SDS011;29856;52.144;5.430;2023-06-26T10:51:50;6.93;;;1.73;;
44189;SDS011;29856;52.144;5.430;2023-06-26T10:54:16;3.40;;;1.38;;
44189;SDS011;29856;52.144;5.430;2023-06-26T10:59:16;9.07;;;1.60;;
44189;SDS011;29856;52.144;5.430;2023-06-26T11:01:46;5.47;;;1.27;;
44189;SDS011;29856;52.144;5.430;2023-06-26T11:09:58;2.65;;;1.27;;
44189;SDS011;29856;52.144;5.430;2023-06-26T11:15:09;4.63;;;1.33;;
44189;SDS011;29856;52.144;5.430;2023-06-26T11:17:39;4.00;;;1.60;;
44189;SDS011;29856;52.144;5.430;2023-06-26T11:20:06;3.88;;;1.40;;
44189;SDS011;29856;52.144;5.430;2023-06-26T11:22:37;4.18;;;1.35;;
44189;SDS011;29856;52.144;5.430;2023-06-26T11:25:04;3.38;;;1.10;;
44189;SDS011;29856;52.144;5.430;2023-06-26T11:30:09;7.57;;;1.70;;
44189;SDS011;29856;52.144;5.430;2023-06-26T11:32:36;7.00;;;1.50;;
44189;SDS011;29856;52.144;5.430;2023-06-26T11:35:03;5.03;;;1.38;;
44189;SDS011;29856;52.144;5.430;2023-06-26T11:37:28;8.45;;;1.83;;
44189;SDS011;29856;52.144;5.430;2023-06-26T11:39:54;5.35;;;1.33;;
44189;SDS011;29856;52.144;5.430;2023-06-26T11:42:20;5.50;;;1.10;;
44189;SDS011;29856;52.144;5.430;2023-06-26T11:44:46;5.18;;;1.08;;
44189;SDS011;29856;52.144;5.430;2023-06-26T11:47:12;3.30;;;1.20;;
44189;SDS011;29856;52.144;5.430;2023-06-26T11:49:45;7.45;;;1.70;;
44189;SDS011;29856;52.144;5.430;2023-06-26T11:52:12;4.40;;;1.42;;
44189;SDS011;29856;52.144;5.430;2023-06-26T11:54:39;4.43;;;1.48;;
44189;SDS011;29856;52.144;5.430;2023-06-26T11:57:05;2.38;;;1.00;;
44189;SDS011;29856;52.144;5.430;2023-06-26T11:59:38;10.23;;;1.45;;
44189;SDS011;29856;52.144;5.430;2023-06-26T12:02:04;4.38;;;1.30;;
44189;SDS011;29856;52.144;5.430;2023-06-26T12:04:40;10.45;;;1.40;;
44189;SDS011;29856;52.144;5.430;2023-06-26T12:07:07;4.22;;;1.25;;
44189;SDS011;29856;52.144;5.430;2023-06-26T12:09:34;2.83;;;1.02;;
44189;SDS011;29856;52.144;5.430;2023-06-26T12:12:07;6.50;;;1.38;;
44189;SDS011;29856;52.144;5.430;2023-06-26T12:14:33;2.13;;;1.00;;
44189;SDS011;29856;52.144;5.430;2023-06-26T12:17:03;3.38;;;0.98;;
44189;SDS011;29856;52.144;5.430;2023-06-26T12:19:30;4.18;;;1.27;;
44189;SDS011;29856;52.144;5.430;2023-06-26T12:21:56;4.07;;;1.30;;
44189;SDS011;29856;52.144;5.430;2023-06-26T12:24:22;4.05;;;1.30;;
44189;SDS011;29856;52.144;5.430;2023-06-26T12:26:52;6.55;;;1.58;;
44189;SDS011;29856;52.144;5.430;2023-06-26T12:29:20;6.97;;;1.42;;
44189;SDS011;29856;52.144;5.430;2023-06-26T12:31:48;5.18;;;1.27;;
44189;SDS011;29856;52.144;5.430;2023-06-26T12:34:17;6.80;;;1.50;;
44189;SDS011;29856;52.144;5.430;2023-06-26T12:36:45;3.30;;;1.30;;
44189;SDS011;29856;52.144;5.430;2023-06-26T12:39:11;3.05;;;1.20;;
44189;SDS011;29856;52.144;5.430;2023-06-26T12:41:44;4.45;;;1.20;;
44189;SDS011;29856;52.144;5.430;2023-06-26T12:44:20;3.53;;;1.10;;
44189;SDS011;29856;52.144;5.430;2023-06-26T12:46:48;1.95;;;0.90;;
44189;SDS011;29856;52.144;5.430;2023-06-26T12:49:17;2.72;;;1.10;;
44189;SDS011;29856;52.144;5.430;2023-06-26T12:51:43;2.10;;;0.95;;
44189;SDS011;29856;52.144;5.430;2023-06-26T12:54:08;5.55;;;1.10;;
44189;SDS011;29856;52.144;5.430;2023-06-26T12:56:36;1.27;;;0.88;;
44189;SDS011;29856;52.144;5.430;2023-06-26T12:59:02;1.52;;;0.95;;
44189;SDS011;29856;52.144;5.430;2023-06-26T13:01:28;5.03;;;1.02;;
44189;SDS011;29856;52.144;5.430;2023-06-26T13:03:56;3.00;;;0.90;;
44189;SDS011;29856;52.144;5.430;2023-06-26T13:06:22;4.20;;;1.10;;
44189;SDS011;29856;52.144;5.430;2023-06-26T13:08:47;3.40;;;1.20;;
44189;SDS011;29856;52.144;5.430;2023-06-26T13:11:13;3.53;;;1.30;;
44189;SDS011;29856;52.144;5.430;2023-06-26T13:13:38;5.55;;;1.10;;
44189;SDS011;29856;52.144;5.430;2023-06-26T13:16:04;7.13;;;1.33;;
44189;SDS011;29856;52.144;5.430;2023-06-26T13:18:29;2.53;;;1.20;;
44189;SDS011;29856;52.144;5.430;2023-06-26T13:20:55;1.63;;;0.80;;
44189;SDS011;29856;52.144;5.430;2023-06-26T13:23:20;3.95;;;1.10;;
44189;SDS011;29856;52.144;5.430;2023-06-26T13:25:45;6.30;;;1.60;;
44189;SDS011;29856;52.144;5.430;2023-06-26T13:28:11;6.43;;;1.10;;
44189;SDS011;29856;52.144;5.430;2023-06-26T13:30:37;4.93;;;1.67;;
44189;SDS011;29856;52.144;5.430;2023-06-26T13:33:02;3.70;;;0.90;;
44189;SDS011;29856;52.144;5.430;2023-06-26T13:35:28;4.63;;;1.25;;
44189;SDS011;29856;52.144;5.430;2023-06-26T13:37:53;2.47;;;1.00;;
44189;SDS011;29856;52.144;5.430;2023-06-26T13:40:19;3.20;;;0.95;;
44189;SDS011;29856;52.144;5.430;2023-06-26T13:42:44;2.33;;;0.98;;
44189;SDS011;29856;52.144;5.430;2023-06-26T13:45:10;5.18;;;1.05;;
44189;SDS011;29856;52.144;5.430;2023-06-26T13:47:36;4.88;;;1.17;;
44189;SDS011;29856;52.144;5.430;2023-06-26T13:50:01;4.22;;;1.10;;
44189;SDS011;29856;52.144;5.430;2023-06-26T13:52:27;7.45;;;1.73;;
44189;SDS011;29856;52.144;5.430;2023-06-26T13:54:52;3.92;;;1.40;;
44189;SDS011;29856;52.144;5.430;2023-06-26T13:57:17;3.72;;;1.15;;
44189;SDS011;29856;52.144;5.430;2023-06-26T13:59:43;2.42;;;1.02;;
44189;SDS011;29856;52.144;5.430;2023-06-26T14:02:08;5.60;;;1.63;;
44189;SDS011;29856;52.144;5.430;2023-06-26T14:04:34;2.60;;;1.20;;
44189;SDS011;29856;52.144;5.430;2023-06-26T14:06:59;2.25;;;1.17;;
44189;SDS011;29856;52.144;5.430;2023-06-26T14:09:25;2.47;;;1.02;;
44189;SDS011;29856;52.144;5.430;2023-06-26T14:11:50;11.77;;;1.40;;
44189;SDS011;29856;52.144;5.430;2023-06-26T14:14:16;4.70;;;1.10;;
44189;SDS011;29856;52.144;5.430;2023-06-26T14:16:41;3.40;;;1.23;;
44189;SDS011;29856;52.144;5.430;2023-06-26T14:19:07;2.45;;;0.82;;
44189;SDS011;29856;52.144;5.430;2023-06-26T14:21:33;6.07;;;1.25;;
44189;SDS011;29856;52.144;5.430;2023-06-26T14:23:58;4.53;;;1.10;;
44189;SDS011;29856;52.144;5.430;2023-06-26T14:26:24;3.53;;;0.90;;
44189;SDS011;29856;52.144;5.430;2023-06-26T14:28:49;3.72;;;0.90;;
44189;SDS011;29856;52.144;5.430;2023-06-26T14:31:15;5.18;;;1.00;;
44189;SDS011;29856;52.144;5.430;2023-06-26T14:33:40;2.75;;;1.13;;
44189;SDS011;29856;52.144;5.430;2023-06-26T14:36:06;2.85;;;1.05;;
44189;SDS011;29856;52.144;5.430;2023-06-26T14:38:31;7.15;;;1.20;;
44189;SDS011;29856;52.144;5.430;2023-06-26T14:40:57;5.80;;;1.20;;
44189;SDS011;29856;52.144;5.430;2023-06-26T14:43:22;6.25;;;1.23;;
44189;SDS011;29856;52.144;5.430;2023-06-26T14:45:48;4.00;;;1.27;;
44189;SDS011;29856;52.144;5.430;2023-06-26T14:48:14;2.88;;;1.08;;
44189;SDS011;29856;52.144;5.430;2023-06-26T14:50:40;4.82;;;1.20;;
44189;SDS011;29856;52.144;5.430;2023-06-26T14:53:05;1.63;;;1.20;;
44189;SDS011;29856;52.144;5.430;2023-06-26T14:55:31;4.15;;;1.35;;
44189;SDS011;29856;52.144;5.430;2023-06-26T14:57:56;3.50;;;1.55;;
44189;SDS011;29856;52.144;5.430;2023-06-26T15:00:22;3.53;;;1.25;;
44189;SDS011;29856;52.144;5.430;2023-06-26T15:02:47;4.53;;;1.30;;